createdAt,value
2018-10-07T00:01:42.935Z,31.23
2018-10-07T00:04:11.186Z,31.57
2018-10-07T00:06:39.455Z,30.43
2018-10-07T00:09:08.415Z,30.13
2018-10-07T00:11:36.874Z,30.17
2018-10-07T00:14:05.166Z,31.10
2018-10-07T00:16:33.416Z,30.93
2018-10-07T00:19:01.688Z,31.70
2018-10-07T00:21:29.940Z,31.90
2018-10-07T00:23:58.750Z,32.17
2018-10-07T00:26:27.024Z,32.08
2018-10-07T00:28:55.380Z,32.00
2018-10-07T00:31:23.643Z,32.70
2018-10-07T00:33:51.905Z,34.90
2018-10-07T00:36:20.149Z,38.08
2018-10-07T00:38:48.391Z,40.00
2018-10-07T00:41:16.655Z,38.73
2018-10-07T00:43:44.906Z,38.35
2018-10-07T00:46:13.151Z,38.90
2018-10-07T00:48:41.506Z,41.93
2018-10-07T00:51:09.789Z,45.43
2018-10-07T00:53:38.087Z,51.37
2018-10-07T00:56:06.360Z,52.73
2018-10-07T00:58:34.642Z,50.28
2018-10-07T01:01:02.916Z,49.30
2018-10-07T01:03:31.167Z,48.87
2018-10-07T01:05:59.491Z,51.13
2018-10-07T01:08:27.735Z,50.28
2018-10-07T01:10:55.982Z,53.00
2018-10-07T01:13:24.212Z,51.85
2018-10-07T01:15:52.521Z,61.25
2018-10-07T01:18:20.759Z,66.40
2018-10-07T01:20:49.050Z,65.32
2018-10-07T01:23:17.686Z,67.37
2018-10-07T01:25:45.973Z,69.20
2018-10-07T01:28:14.243Z,70.78
2018-10-07T01:30:42.486Z,72.22
2018-10-07T01:33:10.791Z,72.20
2018-10-07T01:35:39.085Z,71.12
2018-10-07T01:38:07.356Z,70.52
2018-10-07T01:40:35.694Z,70.00
2018-10-07T01:43:03.952Z,70.37
2018-10-07T01:45:32.268Z,71.33
2018-10-07T01:48:00.568Z,70.70
2018-10-07T01:50:28.844Z,72.12
2018-10-07T01:52:57.092Z,68.70
2018-10-07T01:55:25.353Z,71.53
2018-10-07T01:57:53.640Z,71.30
2018-10-07T02:00:21.922Z,69.55
2018-10-07T02:02:50.203Z,68.07
2018-10-07T02:05:18.482Z,67.50
2018-10-07T02:07:46.772Z,67.22
2018-10-07T02:10:15.139Z,65.37
2018-10-07T02:12:43.423Z,62.30
2018-10-07T02:15:11.692Z,61.60
2018-10-07T02:17:39.961Z,61.87
2018-10-07T02:20:08.232Z,60.83
2018-10-07T02:22:36.480Z,62.60
2018-10-07T02:25:04.739Z,61.33
2018-10-07T02:27:32.988Z,59.50
2018-10-07T02:30:01.301Z,60.50
2018-10-07T02:32:29.533Z,57.63
2018-10-07T02:34:57.814Z,60.17
2018-10-07T02:37:26.069Z,59.20
2018-10-07T02:39:54.334Z,59.57
2018-10-07T02:42:22.588Z,58.53
2018-10-07T02:44:50.840Z,60.40
2018-10-07T02:47:19.099Z,59.80
2018-10-07T02:49:47.393Z,59.10
2018-10-07T02:52:19.840Z,59.33
2018-10-07T02:54:48.120Z,58.00
2018-10-07T02:57:16.352Z,58.83
2018-10-07T02:59:44.646Z,56.42
2018-10-07T03:02:12.935Z,57.62
2018-10-07T03:04:41.383Z,54.83
2018-10-07T03:07:09.600Z,55.12
2018-10-07T03:09:37.886Z,56.02
2018-10-07T03:12:06.256Z,54.70
2018-10-07T03:14:34.536Z,56.95
2018-10-07T03:17:03.586Z,57.23
2018-10-07T03:19:31.877Z,53.95
2018-10-07T03:22:00.165Z,46.42
2018-10-07T03:24:28.497Z,41.90
2018-10-07T03:26:56.754Z,29.95
2018-10-07T03:29:25.047Z,28.55
2018-10-07T03:31:53.339Z,27.15
2018-10-07T03:34:21.631Z,27.10
2018-10-07T03:36:50.026Z,24.47
2018-10-07T03:39:18.281Z,19.52
2018-10-07T03:41:46.554Z,18.77
2018-10-07T03:44:14.806Z,17.60
2018-10-07T03:46:43.108Z,17.20
2018-10-07T03:49:11.404Z,14.27
2018-10-07T03:51:39.656Z,15.87
2018-10-07T03:54:07.907Z,17.23
2018-10-07T03:56:36.151Z,16.10
2018-10-07T03:59:04.388Z,15.37
2018-10-07T04:01:32.692Z,14.20
2018-10-07T04:04:01.009Z,15.18
2018-10-07T04:06:29.256Z,14.00
2018-10-07T04:08:57.525Z,14.60
2018-10-07T04:11:25.779Z,12.47
2018-10-07T04:13:54.102Z,12.25
2018-10-07T04:16:22.364Z,11.60
2018-10-07T04:18:50.622Z,12.30
2018-10-07T04:21:18.919Z,12.40
2018-10-07T04:23:47.168Z,12.30
2018-10-07T04:26:15.462Z,11.60
2018-10-07T04:28:43.757Z,11.05
2018-10-07T04:31:12.051Z,10.77
2018-10-07T04:33:40.316Z,10.40
2018-10-07T04:36:08.709Z,9.78
2018-10-07T04:38:36.945Z,8.33
2018-10-07T04:41:05.185Z,8.28
2018-10-07T04:43:33.423Z,7.70
2018-10-07T04:46:01.704Z,7.80
2018-10-07T04:48:29.976Z,7.60
2018-10-07T04:50:58.259Z,7.95
2018-10-07T04:53:26.723Z,8.53
2018-10-07T04:55:55.026Z,7.50
2018-10-07T04:58:24.481Z,7.60
2018-10-07T05:00:52.981Z,7.80
2018-10-07T05:03:21.342Z,7.58
2018-10-07T05:05:50.366Z,7.10
2018-10-07T05:08:18.634Z,6.10
2018-10-07T05:10:51.256Z,6.80
2018-10-07T05:13:28.560Z,5.90
2018-10-07T05:15:59.038Z,5.22
2018-10-07T05:18:27.368Z,6.70
2018-10-07T05:20:55.954Z,6.10
2018-10-07T05:23:24.210Z,5.70
2018-10-07T05:25:52.468Z,6.00
2018-10-07T05:28:20.754Z,5.45
2018-10-07T05:30:49.023Z,5.37
2018-10-07T05:33:17.348Z,5.55
2018-10-07T05:35:45.611Z,5.37
2018-10-07T05:38:13.888Z,4.90
2018-10-07T05:40:42.171Z,6.62
2018-10-07T05:43:10.516Z,5.90
2018-10-07T05:45:38.764Z,4.50
2018-10-07T05:48:07.056Z,4.80
2018-10-07T05:50:35.358Z,3.98
2018-10-07T05:53:03.622Z,4.60
2018-10-07T05:55:31.887Z,4.30
2018-10-07T05:58:01.729Z,5.00
2018-10-07T06:00:30.871Z,4.30
2018-10-07T06:03:13.219Z,4.28
2018-10-07T06:05:41.751Z,4.00
2018-10-07T06:08:10.264Z,4.20
2018-10-07T06:10:38.528Z,3.93
2018-10-07T06:13:06.804Z,3.85
2018-10-07T06:15:36.298Z,3.90
2018-10-07T06:18:04.603Z,3.85
2018-10-07T06:20:32.898Z,4.58
2018-10-07T06:23:01.157Z,4.10
2018-10-07T06:25:29.428Z,4.50
2018-10-07T06:27:57.984Z,4.00
2018-10-07T06:30:26.269Z,4.80
2018-10-07T06:32:54.750Z,3.80
2018-10-07T06:35:23.976Z,3.83
2018-10-07T06:37:52.723Z,4.25
2018-10-07T06:40:21.322Z,4.33
2018-10-07T06:42:49.564Z,3.83
2018-10-07T06:45:17.888Z,3.85
2018-10-07T06:47:46.304Z,3.60
2018-10-07T06:50:14.666Z,3.40
2018-10-07T06:52:42.992Z,4.00
2018-10-07T06:55:11.276Z,3.62
2018-10-07T06:57:39.566Z,3.90
2018-10-07T07:00:08.660Z,4.20
2018-10-07T07:02:36.923Z,4.35
2018-10-07T07:05:05.490Z,3.90
2018-10-07T07:07:33.833Z,3.42
2018-10-07T07:10:02.118Z,3.23
2018-10-07T07:12:30.386Z,3.10
2018-10-07T07:14:58.644Z,2.87
2018-10-07T07:17:26.908Z,3.12
2018-10-07T07:19:55.248Z,3.00
2018-10-07T07:22:23.476Z,2.95
2018-10-07T07:24:51.734Z,2.70
2018-10-07T07:27:19.999Z,2.80
2018-10-07T07:29:48.306Z,2.90
2018-10-07T07:32:16.570Z,2.70
2018-10-07T07:34:44.816Z,2.58
2018-10-07T07:37:13.115Z,3.30
2018-10-07T07:39:41.368Z,2.40
2018-10-07T07:42:09.680Z,2.40
2018-10-07T07:44:37.934Z,2.70
2018-10-07T07:47:06.375Z,3.55
2018-10-07T07:49:34.658Z,2.90
2018-10-07T07:52:02.923Z,2.20
2018-10-07T07:54:31.195Z,2.15
2018-10-07T07:56:59.457Z,2.33
2018-10-07T07:59:27.735Z,2.10
2018-10-07T08:01:55.992Z,2.03
2018-10-07T08:04:24.279Z,1.90
2018-10-07T08:06:52.527Z,2.10
2018-10-07T08:09:20.754Z,2.00
2018-10-07T08:11:49.018Z,2.27
2018-10-07T08:14:17.312Z,1.90
2018-10-07T08:16:45.610Z,2.10
2018-10-07T08:19:13.876Z,2.20
2018-10-07T08:21:42.124Z,2.30
2018-10-07T08:24:10.408Z,2.50
2018-10-07T08:26:38.687Z,2.20
2018-10-07T08:29:07.032Z,2.22
2018-10-07T08:31:35.278Z,1.80
2018-10-07T08:34:03.546Z,2.10
2018-10-07T08:36:31.849Z,2.10
2018-10-07T08:39:00.056Z,2.60
2018-10-07T08:41:28.348Z,1.70
2018-10-07T08:43:56.593Z,2.30
2018-10-07T08:46:24.829Z,1.50
2018-10-07T08:48:53.110Z,1.30
2018-10-07T08:51:21.350Z,1.30
2018-10-07T08:53:49.591Z,1.30
2018-10-07T08:56:17.887Z,1.17
2018-10-07T08:58:46.084Z,1.90
2018-10-07T09:01:14.364Z,1.20
2018-10-07T09:03:42.622Z,0.90
2018-10-07T09:06:10.864Z,1.00
2018-10-07T09:08:39.216Z,1.00
2018-10-07T09:11:07.503Z,0.80
2018-10-07T09:13:35.748Z,1.00
2018-10-07T09:16:04.763Z,1.00
2018-10-07T09:18:33.042Z,0.90
2018-10-07T09:21:01.388Z,0.60
2018-10-07T09:23:29.694Z,0.90
2018-10-07T09:25:57.920Z,0.70
2018-10-07T09:28:26.190Z,0.90
2018-10-07T09:30:54.620Z,1.00
2018-10-07T09:33:22.911Z,0.90
2018-10-07T09:35:51.144Z,0.90
2018-10-07T09:38:19.378Z,0.70
2018-10-07T09:40:47.629Z,0.90
2018-10-07T09:43:15.922Z,0.82
2018-10-07T09:45:44.213Z,0.80
2018-10-07T09:48:12.482Z,0.70
2018-10-07T09:50:40.704Z,0.80
2018-10-07T09:53:08.980Z,0.68
2018-10-07T09:55:37.204Z,0.80
2018-10-07T09:58:05.541Z,0.90
2018-10-07T10:00:40.391Z,0.80
2018-10-07T10:03:09.764Z,0.80
2018-10-07T10:05:38.058Z,0.80
2018-10-07T10:08:06.630Z,0.70
2018-10-07T10:10:34.876Z,1.00
2018-10-07T10:13:03.133Z,0.82
2018-10-07T10:15:31.412Z,0.80
2018-10-07T10:18:02.723Z,0.90
2018-10-07T10:21:44.173Z,0.80
2018-10-07T10:26:25.045Z,1.50
2018-10-07T10:29:04.689Z,1.00
2018-10-07T10:31:44.446Z,1.15
2018-10-07T10:34:23.575Z,0.80
2018-10-07T10:37:05.657Z,1.00
2018-10-07T10:40:10.657Z,0.80
2018-10-07T10:42:55.353Z,0.80
2018-10-07T10:45:32.874Z,0.90
2018-10-07T10:48:23.759Z,0.72
2018-10-07T10:50:58.885Z,1.00
2018-10-07T10:53:41.468Z,0.80
2018-10-07T10:56:26.431Z,0.80
2018-10-07T10:59:26.653Z,0.90
2018-10-07T11:02:14.312Z,0.80
2018-10-07T11:04:52.872Z,0.80
2018-10-07T11:07:24.714Z,1.00
2018-10-07T11:12:04.548Z,0.60
2018-10-07T11:14:43.938Z,0.70
2018-10-07T11:19:28.317Z,0.70
2018-10-07T11:22:07.302Z,1.00
2018-10-07T11:24:43.831Z,0.80
2018-10-07T11:28:22.683Z,0.70
2018-10-07T11:31:07.182Z,0.60
2018-10-07T11:34:45.549Z,0.90
2018-10-07T11:37:36.368Z,0.95
2018-10-07T11:40:14.316Z,0.90
2018-10-07T11:42:47.114Z,0.93
2018-10-07T11:45:19.144Z,1.20
2018-10-07T11:48:02.077Z,1.05
2018-10-07T11:50:57.938Z,0.80
2018-10-07T11:53:31.610Z,1.10
2018-10-07T11:55:59.827Z,1.30
2018-10-07T11:58:28.995Z,0.90
2018-10-07T12:00:57.310Z,1.10
2018-10-07T12:03:25.626Z,0.70
2018-10-07T12:05:53.922Z,0.90
2018-10-07T12:08:22.402Z,0.95
2018-10-07T12:10:50.692Z,0.80
2018-10-07T12:13:18.939Z,0.93
2018-10-07T12:15:47.544Z,0.90
2018-10-07T12:18:15.786Z,1.00
2018-10-07T12:20:44.056Z,0.90
2018-10-07T12:23:12.322Z,1.52
2018-10-07T12:25:40.950Z,0.80
2018-10-07T12:28:09.524Z,1.17
2018-10-07T12:30:37.884Z,0.90
2018-10-07T12:33:06.476Z,1.07
2018-10-07T12:35:34.765Z,0.85
2018-10-07T12:38:03.080Z,0.90
2018-10-07T12:40:31.541Z,0.70
2018-10-07T12:42:59.864Z,0.93
2018-10-07T12:45:28.150Z,0.67
2018-10-07T12:47:56.404Z,0.60
2018-10-07T12:50:24.675Z,0.90
2018-10-07T12:52:53.760Z,0.70
2018-10-07T12:55:22.100Z,0.70
2018-10-07T12:57:50.387Z,0.70
2018-10-07T13:00:18.683Z,0.70
2018-10-07T13:02:46.935Z,0.70
2018-10-07T13:05:15.222Z,0.70
2018-10-07T13:07:43.483Z,0.90
2018-10-07T13:10:11.851Z,0.70
2018-10-07T13:12:40.116Z,0.62
2018-10-07T13:15:08.424Z,0.80
2018-10-07T13:17:36.758Z,0.90
2018-10-07T13:20:05.290Z,0.88
2018-10-07T13:22:33.716Z,0.80
2018-10-07T13:25:02.042Z,0.90
2018-10-07T13:27:30.521Z,0.70
2018-10-07T13:29:58.780Z,0.80
2018-10-07T13:32:27.181Z,0.90
2018-10-07T13:34:55.416Z,0.70
2018-10-07T13:37:23.803Z,0.70
2018-10-07T13:39:52.086Z,0.80
2018-10-07T13:42:20.347Z,0.90
2018-10-07T13:44:48.622Z,0.78
2018-10-07T13:47:16.935Z,0.80
2018-10-07T13:49:45.234Z,0.98
2018-10-07T13:52:13.536Z,1.00
2018-10-07T13:54:41.794Z,0.98
2018-10-07T13:57:10.088Z,0.90
2018-10-07T13:59:38.353Z,0.80
2018-10-07T14:02:06.601Z,0.90
2018-10-07T14:04:34.922Z,0.90
2018-10-07T14:07:03.160Z,1.12
2018-10-07T14:09:31.411Z,0.90
2018-10-07T14:11:59.661Z,0.80
2018-10-07T14:14:28.013Z,0.90
2018-10-07T14:16:56.287Z,1.07
2018-10-07T14:19:24.558Z,1.10
2018-10-07T14:21:52.807Z,0.90
2018-10-07T14:24:21.068Z,1.15
2018-10-07T14:26:49.332Z,1.32
2018-10-07T14:29:17.587Z,1.20
2018-10-07T14:31:45.823Z,0.80
2018-10-07T14:34:14.092Z,1.00
2018-10-07T14:36:42.384Z,0.95
2018-10-07T14:39:12.339Z,0.80
2018-10-07T14:41:40.551Z,0.90
2018-10-07T14:44:08.828Z,0.93
2018-10-07T14:46:37.175Z,1.00
2018-10-07T14:49:05.427Z,0.90
2018-10-07T14:51:33.692Z,0.93
2018-10-07T14:54:01.952Z,1.00
2018-10-07T14:56:30.203Z,1.07
2018-10-07T14:58:58.456Z,0.70
2018-10-07T15:01:26.742Z,0.90
2018-10-07T15:03:54.971Z,0.90
2018-10-07T15:06:23.235Z,0.80
2018-10-07T15:08:51.491Z,1.00
2018-10-07T15:11:19.792Z,1.00
2018-10-07T15:13:48.186Z,1.20
2018-10-07T15:16:16.511Z,1.00
2018-10-07T15:18:44.750Z,0.95
2018-10-07T15:21:12.987Z,0.88
2018-10-07T15:23:41.237Z,0.90
2018-10-07T15:26:09.442Z,1.10
2018-10-07T15:28:37.804Z,1.40
2018-10-07T15:31:06.043Z,0.90
2018-10-07T15:33:34.330Z,0.80
2018-10-07T15:36:02.617Z,0.80
2018-10-07T15:38:30.898Z,0.85
2018-10-07T15:40:59.128Z,0.80
2018-10-07T15:43:27.432Z,1.00
2018-10-07T15:45:55.812Z,0.93
2018-10-07T15:48:24.172Z,0.80
2018-10-07T15:50:52.438Z,0.80
2018-10-07T15:53:20.699Z,1.10
2018-10-07T15:55:48.964Z,1.00
2018-10-07T15:58:17.526Z,1.30
2018-10-07T16:00:45.814Z,0.90
2018-10-07T16:03:14.076Z,0.90
2018-10-07T16:05:42.419Z,1.30
2018-10-07T16:08:10.796Z,1.05
2018-10-07T16:10:39.073Z,1.10
2018-10-07T16:13:07.325Z,0.72
2018-10-07T16:15:35.602Z,1.25
2018-10-07T16:18:03.892Z,0.93
2018-10-07T16:20:32.159Z,1.10
2018-10-07T16:23:00.479Z,0.85
2018-10-07T16:25:28.764Z,1.00
2018-10-07T16:27:57.024Z,1.00
2018-10-07T16:30:25.351Z,1.00
2018-10-07T16:32:53.610Z,1.30
2018-10-07T16:35:21.929Z,1.75
2018-10-07T16:37:50.242Z,3.00
2018-10-07T16:40:18.508Z,1.60
2018-10-07T16:42:46.790Z,1.00
2018-10-07T16:45:15.135Z,1.27
2018-10-07T16:47:43.410Z,0.80
2018-10-07T16:50:11.664Z,1.50
2018-10-07T16:52:40.243Z,1.20
2018-10-07T16:55:08.522Z,1.10
2018-10-07T16:57:36.802Z,0.85
2018-10-07T17:00:05.080Z,1.10
2018-10-07T17:02:33.344Z,1.10
2018-10-07T17:05:01.602Z,1.10
2018-10-07T17:07:29.880Z,1.00
2018-10-07T17:09:58.131Z,1.00
2018-10-07T17:12:26.383Z,1.10
2018-10-07T17:14:54.669Z,1.40
2018-10-07T17:17:22.956Z,1.80
2018-10-07T17:19:51.334Z,3.22
2018-10-07T17:22:19.581Z,2.80
2018-10-07T17:24:48.145Z,2.40
2018-10-07T17:27:16.676Z,2.50
2018-10-07T17:29:44.889Z,1.87
2018-10-07T17:32:13.162Z,1.90
2018-10-07T17:34:41.409Z,1.70
2018-10-07T17:37:09.632Z,1.70
2018-10-07T17:39:37.909Z,1.70
2018-10-07T17:42:06.159Z,2.72
2018-10-07T17:44:34.434Z,3.22
2018-10-07T17:47:02.702Z,3.72
2018-10-07T17:49:30.960Z,4.50
2018-10-07T17:51:59.207Z,3.70
2018-10-07T17:54:27.469Z,2.30
2018-10-07T17:56:55.794Z,2.30
2018-10-07T17:59:24.047Z,2.00
2018-10-07T18:01:52.401Z,2.17
2018-10-07T18:04:20.680Z,2.20
2018-10-07T18:06:48.982Z,2.40
2018-10-07T18:09:17.284Z,2.67
2018-10-07T18:11:45.512Z,3.20
2018-10-07T18:14:13.770Z,3.70
2018-10-07T18:16:42.047Z,5.20
2018-10-07T18:19:10.301Z,3.67
2018-10-07T18:21:38.643Z,3.37
2018-10-07T18:24:06.907Z,4.35
2018-10-07T18:26:35.269Z,4.20
2018-10-07T18:29:03.598Z,3.33
2018-10-07T18:31:31.900Z,3.20
2018-10-07T18:34:00.206Z,3.52
2018-10-07T18:36:28.460Z,4.00
2018-10-07T18:38:56.763Z,3.58
2018-10-07T18:41:25.035Z,3.30
2018-10-07T18:43:53.355Z,5.07
2018-10-07T18:46:21.637Z,4.70
2018-10-07T18:48:50.005Z,4.90
2018-10-07T18:51:18.213Z,4.47
2018-10-07T18:53:46.510Z,4.40
2018-10-07T18:56:14.787Z,3.90
2018-10-07T18:58:43.260Z,3.35
2018-10-07T19:01:11.523Z,3.00
2018-10-07T19:03:39.769Z,3.30
2018-10-07T19:06:08.194Z,3.90
2018-10-07T19:08:36.571Z,1.90
2018-10-07T19:11:04.811Z,2.22
2018-10-07T19:13:33.132Z,2.65
2018-10-07T19:16:01.563Z,2.10
2018-10-07T19:18:29.852Z,1.90
2018-10-07T19:20:58.241Z,2.30
2018-10-07T19:23:26.458Z,2.90
2018-10-07T19:25:54.714Z,4.00
2018-10-07T19:28:22.952Z,4.22
2018-10-07T19:30:51.255Z,3.80
2018-10-07T19:33:19.543Z,4.12
2018-10-07T19:35:47.786Z,4.30
2018-10-07T19:38:16.083Z,5.03
2018-10-07T19:40:44.359Z,5.30
2018-10-07T19:43:12.651Z,6.07
2018-10-07T19:45:40.952Z,5.90
2018-10-07T19:48:09.215Z,6.53
2018-10-07T19:50:37.464Z,7.20
2018-10-07T19:53:06.162Z,14.70
2018-10-07T19:55:34.415Z,16.20
2018-10-07T19:58:02.693Z,12.33
2018-10-07T20:00:30.952Z,7.83
2018-10-07T20:02:59.231Z,8.00
2018-10-07T20:05:27.516Z,8.80
2018-10-07T20:07:55.801Z,7.12
2018-10-07T20:10:24.081Z,4.37
2018-10-07T20:12:52.318Z,5.47
2018-10-07T20:15:20.585Z,9.25
2018-10-07T20:17:48.821Z,9.70
2018-10-07T20:20:17.111Z,7.60
2018-10-07T20:22:45.403Z,7.05
2018-10-07T20:25:13.683Z,6.83
2018-10-07T20:27:41.924Z,6.78
2018-10-07T20:30:10.175Z,5.50
2018-10-07T20:32:38.473Z,6.10
2018-10-07T20:35:06.804Z,6.45
2018-10-07T20:37:35.072Z,7.25
2018-10-07T20:40:03.316Z,6.05
2018-10-07T20:42:31.564Z,6.50
2018-10-07T20:44:59.862Z,5.83
2018-10-07T20:47:28.150Z,5.85
2018-10-07T20:49:56.407Z,5.40
2018-10-07T20:52:24.740Z,5.70
2018-10-07T20:54:53.006Z,8.20
2018-10-07T20:57:21.276Z,10.10
2018-10-07T20:59:49.604Z,10.82
2018-10-07T21:02:17.855Z,9.10
2018-10-07T21:04:46.085Z,9.13
2018-10-07T21:07:14.340Z,8.80
2018-10-07T21:09:42.632Z,6.40
2018-10-07T21:12:10.866Z,5.58
2018-10-07T21:14:39.150Z,4.70
2018-10-07T21:17:07.467Z,5.30
2018-10-07T21:19:35.714Z,6.17
2018-10-07T21:22:03.998Z,6.53
2018-10-07T21:24:32.254Z,6.75
2018-10-07T21:27:00.565Z,5.80
2018-10-07T21:29:29.003Z,5.95
2018-10-07T21:31:57.106Z,5.72
2018-10-07T21:34:25.393Z,4.60
2018-10-07T21:36:53.641Z,4.77
2018-10-07T21:39:21.851Z,4.00
2018-10-07T21:41:50.166Z,3.70
2018-10-07T21:44:18.517Z,3.80
2018-10-07T21:46:46.826Z,4.22
2018-10-07T21:49:15.076Z,4.00
2018-10-07T21:51:43.311Z,4.60
2018-10-07T21:54:11.592Z,4.40
2018-10-07T21:56:39.865Z,4.10
2018-10-07T21:59:08.124Z,4.20
2018-10-07T22:01:36.379Z,3.80
2018-10-07T22:04:04.892Z,3.70
2018-10-07T22:06:33.158Z,4.15
2018-10-07T22:09:01.430Z,4.20
2018-10-07T22:11:29.713Z,4.20
2018-10-07T22:13:57.993Z,5.00
2018-10-07T22:16:26.240Z,6.75
2018-10-07T22:18:54.537Z,7.15
2018-10-07T22:21:22.860Z,8.25
2018-10-07T22:23:51.121Z,5.60
2018-10-07T22:26:19.371Z,3.90
2018-10-07T22:28:47.621Z,3.70
2018-10-07T22:31:15.892Z,3.60
2018-10-07T22:33:44.186Z,3.20
2018-10-07T22:36:12.458Z,3.72
2018-10-07T22:38:40.712Z,3.80
2018-10-07T22:41:09.342Z,4.10
2018-10-07T22:43:37.560Z,3.70
2018-10-07T22:46:05.815Z,3.80
2018-10-07T22:48:34.084Z,3.62
2018-10-07T22:51:02.356Z,3.37
2018-10-07T22:53:30.608Z,3.95
2018-10-07T22:55:58.852Z,3.30
2018-10-07T22:58:27.114Z,3.47
2018-10-07T23:00:55.382Z,4.10
2018-10-07T23:03:23.637Z,3.40
2018-10-07T23:05:51.896Z,3.42
2018-10-07T23:08:20.165Z,3.90
2018-10-07T23:10:48.871Z,3.62
2018-10-07T23:13:17.153Z,3.70
2018-10-07T23:15:45.418Z,3.70
2018-10-07T23:18:13.683Z,3.52
2018-10-07T23:20:41.950Z,3.50
2018-10-07T23:23:10.226Z,3.65
2018-10-07T23:25:38.489Z,3.58
2018-10-07T23:28:06.798Z,3.60
2018-10-07T23:30:35.050Z,3.65
2018-10-07T23:33:03.260Z,3.70
2018-10-07T23:35:31.494Z,4.30
2018-10-07T23:38:02.810Z,4.10
2018-10-07T23:40:31.147Z,3.98
2018-10-07T23:42:59.396Z,4.00
2018-10-07T23:45:27.706Z,3.80
2018-10-07T23:47:55.986Z,3.80
2018-10-07T23:50:24.229Z,3.90
2018-10-07T23:52:52.506Z,4.62
2018-10-07T23:55:20.770Z,4.30
2018-10-07T23:57:49.021Z,4.10
